createdAt,value
2023-03-05T00:01:27.846Z,99867.28
2023-03-05T00:03:56.448Z,99866.47
2023-03-05T00:06:26.197Z,99858.63
2023-03-05T00:08:53.632Z,99860.25
2023-03-05T00:11:21.155Z,99860.34
2023-03-05T00:13:47.988Z,99864.56
2023-03-05T00:16:16.237Z,99872.38
2023-03-05T00:18:43.649Z,99869.88
2023-03-05T00:21:25.423Z,99875.81
2023-03-05T00:23:53.767Z,99875.66
2023-03-05T00:26:23.008Z,99876.00
2023-03-05T00:28:50.074Z,99877.56
2023-03-05T00:31:17.685Z,99875.72
2023-03-05T00:33:44.464Z,99868.75
2023-03-05T00:36:11.844Z,99867.91
2023-03-05T00:38:38.483Z,99872.91
2023-03-05T00:41:05.329Z,99864.28
2023-03-05T00:43:32.002Z,99862.50
2023-03-05T00:45:58.849Z,99853.13
2023-03-05T00:48:25.578Z,99860.88
2023-03-05T00:50:55.922Z,99849.56
2023-03-05T00:53:22.798Z,99853.06
2023-03-05T00:55:49.470Z,99851.34
2023-03-05T00:58:16.216Z,99851.44
2023-03-05T01:00:42.975Z,99855.97
2023-03-05T01:03:09.865Z,99849.84
2023-03-05T01:05:36.591Z,99854.00
2023-03-05T01:08:05.469Z,99854.94
2023-03-05T01:10:32.203Z,99856.09
2023-03-05T01:12:59.660Z,99856.81
2023-03-05T01:15:26.457Z,99852.47
2023-03-05T01:17:53.393Z,99853.13
2023-03-05T01:20:21.920Z,99851.44
2023-03-05T01:22:49.308Z,99855.03
2023-03-05T01:25:17.461Z,99864.75
2023-03-05T01:27:44.639Z,99860.31
2023-03-05T01:30:13.419Z,99869.00
2023-03-05T01:32:40.517Z,99867.13
2023-03-05T01:35:07.782Z,99865.63
2023-03-05T01:37:34.578Z,99865.63
2023-03-05T01:40:01.533Z,99855.16
2023-03-05T01:42:28.394Z,99865.56
2023-03-05T01:45:08.930Z,99859.56
2023-03-05T01:47:36.652Z,99856.09
2023-03-05T01:50:05.209Z,99856.88
2023-03-05T01:52:35.639Z,99855.31
2023-03-05T01:55:12.422Z,99851.91
2023-03-05T01:57:55.965Z,99846.47
2023-03-05T02:00:28.176Z,99851.00
2023-03-05T02:02:57.331Z,99851.94
2023-03-05T02:05:29.998Z,99853.72
2023-03-05T02:08:03.022Z,99850.88
2023-03-05T02:10:36.908Z,99854.50
2023-03-05T02:13:10.748Z,99852.84
2023-03-05T02:15:38.387Z,99857.81
2023-03-05T02:18:06.680Z,99856.94
2023-03-05T02:20:52.612Z,99849.88
2023-03-05T02:23:21.351Z,99851.56
2023-03-05T02:25:48.497Z,99855.97
2023-03-05T02:28:40.845Z,99850.00
2023-03-05T02:31:24.545Z,99855.50
2023-03-05T02:33:52.658Z,99856.88
2023-03-05T02:36:20.045Z,99861.41
2023-03-05T02:38:46.951Z,99854.22
2023-03-05T02:41:14.811Z,99855.88
2023-03-05T02:43:42.285Z,99855.03
2023-03-05T02:46:09.430Z,99847.22
2023-03-05T02:48:36.462Z,99844.59
2023-03-05T02:51:05.810Z,99845.69
2023-03-05T02:53:32.616Z,99852.38
2023-03-05T02:55:59.273Z,99841.16
2023-03-05T02:58:25.929Z,99846.34
2023-03-05T03:00:52.577Z,99851.53
2023-03-05T03:03:19.482Z,99851.50
2023-03-05T03:05:46.233Z,99850.69
2023-03-05T03:08:12.852Z,99849.06
2023-03-05T03:10:39.539Z,99843.84
2023-03-05T03:13:06.314Z,99837.81
2023-03-05T03:15:33.018Z,99846.44
2023-03-05T03:17:59.634Z,99836.97
2023-03-05T03:20:26.343Z,99840.59
2023-03-05T03:22:53.677Z,99838.00
2023-03-05T03:25:22.567Z,99830.16
2023-03-05T03:27:49.545Z,99833.59
2023-03-05T03:30:16.455Z,99833.59
2023-03-05T03:32:43.185Z,99830.38
2023-03-05T03:35:11.406Z,99826.00
2023-03-05T03:37:38.160Z,99829.47
2023-03-05T03:40:06.024Z,99824.34
2023-03-05T03:42:32.793Z,99825.13
2023-03-05T03:44:59.420Z,99825.91
2023-03-05T03:47:26.113Z,99826.84
2023-03-05T03:49:55.712Z,99824.31
2023-03-05T03:52:22.415Z,99823.38
2023-03-05T03:54:50.050Z,99830.34
2023-03-05T03:57:16.753Z,99834.66
2023-03-05T03:59:43.391Z,99829.47
2023-03-05T04:02:10.085Z,99825.97
2023-03-05T04:04:36.751Z,99821.69
2023-03-05T04:07:03.453Z,99837.31
2023-03-05T04:09:30.096Z,99828.53
2023-03-05T04:11:56.711Z,99837.22
2023-03-05T04:14:23.328Z,99832.00
2023-03-05T04:16:50.332Z,99825.97
2023-03-05T04:19:17.094Z,99823.28
2023-03-05T04:21:43.759Z,99819.97
2023-03-05T04:24:10.432Z,99823.38
2023-03-05T04:26:37.236Z,99819.00
2023-03-05T04:29:03.990Z,99829.34
2023-03-05T04:31:30.669Z,99824.22
2023-03-05T04:33:57.325Z,99821.53
2023-03-05T04:36:24.115Z,99824.19
2023-03-05T04:38:50.822Z,99819.00
2023-03-05T04:41:17.514Z,99820.69
2023-03-05T04:43:44.142Z,99822.50
2023-03-05T04:46:10.783Z,99827.78
2023-03-05T04:48:37.460Z,99825.16
2023-03-05T04:51:04.349Z,99828.59
2023-03-05T04:53:31.027Z,99828.53
2023-03-05T04:55:57.732Z,99825.94
2023-03-05T04:58:24.354Z,99818.19
2023-03-05T05:00:51.417Z,99821.59
2023-03-05T05:03:18.144Z,99822.50
2023-03-05T05:05:44.899Z,99818.16
2023-03-05T05:08:11.508Z,99821.63
2023-03-05T05:10:38.174Z,99820.78
2023-03-05T05:13:04.973Z,99814.00
2023-03-05T05:15:31.680Z,99812.28
2023-03-05T05:17:58.792Z,99821.59
2023-03-05T05:20:25.426Z,99824.19
2023-03-05T05:22:52.071Z,99825.94
2023-03-05T05:25:18.779Z,99829.38
2023-03-05T05:27:45.383Z,99822.47
2023-03-05T05:30:12.623Z,99825.94
2023-03-05T05:32:39.395Z,99826.91
2023-03-05T05:35:06.642Z,99836.31
2023-03-05T05:37:33.481Z,99833.78
2023-03-05T05:40:00.238Z,99834.72
2023-03-05T05:42:26.893Z,99835.47
2023-03-05T05:44:53.526Z,99838.16
2023-03-05T05:47:20.348Z,99837.28
2023-03-05T05:49:47.353Z,99846.84
2023-03-05T05:52:14.170Z,99839.88
2023-03-05T05:54:40.926Z,99843.31
2023-03-05T05:57:08.354Z,99832.94
2023-03-05T05:59:35.150Z,99843.34
2023-03-05T06:02:01.878Z,99858.94
2023-03-05T06:04:28.611Z,99846.94
2023-03-05T06:06:55.456Z,99852.09
2023-03-05T06:09:22.347Z,99855.47
2023-03-05T06:11:48.972Z,99865.06
2023-03-05T06:14:15.720Z,99860.66
2023-03-05T06:16:42.591Z,99859.91
2023-03-05T06:19:12.263Z,99870.28
2023-03-05T06:21:39.631Z,99861.59
2023-03-05T06:24:06.843Z,99868.47
2023-03-05T06:26:33.517Z,99866.81
2023-03-05T06:29:00.209Z,99859.91
2023-03-05T06:31:28.329Z,99859.00
2023-03-05T06:33:57.994Z,99865.91
2023-03-05T06:36:26.071Z,99862.53
2023-03-05T06:38:53.616Z,99869.38
2023-03-05T06:41:26.575Z,99869.41
2023-03-05T06:43:53.730Z,99865.09
2023-03-05T06:46:25.836Z,99870.31
2023-03-05T06:48:55.751Z,99867.72
2023-03-05T06:51:25.368Z,99861.63
2023-03-05T06:53:52.945Z,99865.13
2023-03-05T06:56:20.428Z,99859.91
2023-03-05T06:58:49.589Z,99864.25
2023-03-05T07:01:16.547Z,99869.47
2023-03-05T07:03:44.028Z,99866.88
2023-03-05T07:06:13.698Z,99871.19
2023-03-05T07:08:40.437Z,99865.16
2023-03-05T07:11:20.919Z,99863.44
2023-03-05T07:13:48.405Z,99867.72
2023-03-05T07:16:21.398Z,99860.84
2023-03-05T07:18:49.314Z,99866.88
2023-03-05T07:21:19.849Z,99861.69
2023-03-05T07:23:47.247Z,99856.47
2023-03-05T07:26:15.514Z,99866.00
2023-03-05T07:28:42.735Z,99873.78
2023-03-05T07:31:14.349Z,99866.91
2023-03-05T07:33:41.603Z,99864.28
2023-03-05T07:36:09.218Z,99864.28
2023-03-05T07:38:39.263Z,99858.25
2023-03-05T07:41:09.466Z,99859.97
2023-03-05T07:43:36.282Z,99860.00
2023-03-05T07:46:08.235Z,99855.66
2023-03-05T07:48:35.458Z,99858.25
2023-03-05T07:51:14.294Z,99859.13
2023-03-05T07:53:41.664Z,99856.53
2023-03-05T07:56:08.680Z,99847.00
2023-03-05T07:58:35.444Z,99852.19
2023-03-05T08:01:02.177Z,99853.06
2023-03-05T08:03:28.921Z,99842.66
2023-03-05T08:05:55.666Z,99842.66
2023-03-05T08:08:25.488Z,99846.16
2023-03-05T08:10:52.148Z,99847.00
2023-03-05T08:13:18.806Z,99845.25
2023-03-05T08:15:45.529Z,99834.88
2023-03-05T08:18:12.162Z,99841.81
2023-03-05T08:20:38.798Z,99843.53
2023-03-05T08:23:05.485Z,99846.13
2023-03-05T08:25:32.224Z,99843.53
2023-03-05T08:27:58.839Z,99843.56
2023-03-05T08:30:25.708Z,99846.13
2023-03-05T08:32:52.439Z,99852.19
2023-03-05T08:35:19.154Z,99846.16
2023-03-05T08:37:45.849Z,99853.94
2023-03-05T08:40:12.884Z,99847.00
2023-03-05T08:42:39.521Z,99845.25
2023-03-05T08:45:06.928Z,99846.13
2023-03-05T08:47:33.628Z,99845.25
2023-03-05T08:50:00.262Z,99848.72
2023-03-05T08:52:26.917Z,99846.13
2023-03-05T08:54:53.549Z,99850.47
2023-03-05T08:57:20.152Z,99849.56
2023-03-05T08:59:46.877Z,99845.22
2023-03-05T09:02:13.901Z,99840.88
2023-03-05T09:04:41.162Z,99844.38
2023-03-05T09:07:07.841Z,99839.03
2023-03-05T09:09:34.593Z,99845.16
2023-03-05T09:12:02.321Z,99840.88
2023-03-05T09:14:29.537Z,99843.50
2023-03-05T09:16:57.384Z,99833.91
2023-03-05T09:19:24.728Z,99836.50
2023-03-05T09:21:51.677Z,99827.75
2023-03-05T09:24:18.423Z,99830.38
2023-03-05T09:26:45.332Z,99826.88
2023-03-05T09:29:12.014Z,99828.47
2023-03-05T09:31:39.258Z,99824.94
2023-03-05T09:34:06.867Z,99826.72
2023-03-05T09:36:33.700Z,99829.34
2023-03-05T09:39:00.334Z,99824.16
2023-03-05T09:41:54.146Z,99827.69
2023-03-05T09:44:51.391Z,99826.00
2023-03-05T09:47:50.292Z,99825.09
2023-03-05T09:50:28.703Z,99820.81
2023-03-05T09:53:03.157Z,99817.28
2023-03-05T09:55:43.983Z,99819.81
2023-03-05T09:58:25.818Z,99819.78
2023-03-05T10:01:04.005Z,99815.38
2023-03-05T10:03:40.906Z,99809.19
2023-03-05T10:06:16.325Z,99804.03
2023-03-05T10:09:00.492Z,99795.44
2023-03-05T10:12:06.112Z,99792.66
2023-03-05T10:14:36.183Z,99791.03
2023-03-05T10:17:18.068Z,99793.47
2023-03-05T10:20:04.333Z,99785.47
2023-03-05T10:23:03.039Z,99790.94
2023-03-05T10:25:57.678Z,99792.66
2023-03-05T10:28:42.938Z,99782.19
2023-03-05T10:31:09.621Z,99779.41
2023-03-05T10:34:06.925Z,99775.97
2023-03-05T10:36:49.384Z,99775.13
2023-03-05T10:39:40.080Z,99775.81
2023-03-05T10:42:31.441Z,99772.50
2023-03-05T10:45:14.161Z,99773.34
2023-03-05T10:47:47.061Z,99770.31
2023-03-05T10:50:37.999Z,99768.13
2023-03-05T10:53:17.554Z,99769.81
2023-03-05T10:55:44.304Z,99767.84
2023-03-05T10:58:17.093Z,99756.53
2023-03-05T11:01:04.480Z,99755.84
2023-03-05T11:04:14.877Z,99757.75
2023-03-05T11:06:43.888Z,99764.44
2023-03-05T11:09:19.232Z,99758.41
2023-03-05T11:12:04.764Z,99759.50
2023-03-05T11:14:32.622Z,99750.66
2023-03-05T11:17:01.009Z,99745.66
2023-03-05T11:19:30.373Z,99736.09
2023-03-05T11:22:16.363Z,99736.09
2023-03-05T11:24:44.262Z,99736.22
2023-03-05T11:27:28.312Z,99736.31
2023-03-05T11:29:55.020Z,99736.00
2023-03-05T11:32:26.139Z,99740.19
2023-03-05T11:34:54.585Z,99731.69
2023-03-05T11:37:31.430Z,99734.22
2023-03-05T11:40:10.390Z,99718.69
2023-03-05T11:42:40.514Z,99717.91
2023-03-05T11:45:16.191Z,99721.13
2023-03-05T11:47:55.606Z,99724.66
2023-03-05T11:50:26.350Z,99717.69
2023-03-05T11:52:57.599Z,99710.06
2023-03-05T11:55:36.737Z,99699.44
2023-03-05T11:58:24.974Z,99700.44
2023-03-05T12:00:53.769Z,99690.88
2023-03-05T12:03:34.153Z,99692.19
2023-03-05T12:06:09.391Z,99690.28
2023-03-05T12:08:45.198Z,99679.53
2023-03-05T12:11:28.933Z,99693.53
2023-03-05T12:14:13.901Z,99680.28
2023-03-05T12:17:11.982Z,99679.41
2023-03-05T12:20:00.113Z,99670.34
2023-03-05T12:22:46.969Z,99669.22
2023-03-05T12:25:39.696Z,99668.28
2023-03-05T12:28:31.750Z,99659.22
2023-03-05T12:31:48.036Z,99665.72
2023-03-05T12:34:36.532Z,99654.16
2023-03-05T12:37:03.419Z,99648.34
2023-03-05T12:39:45.273Z,99647.56
2023-03-05T12:42:30.094Z,99637.91
2023-03-05T12:45:12.119Z,99635.59
2023-03-05T12:47:40.665Z,99628.94
2023-03-05T12:50:29.273Z,99634.44
2023-03-05T12:53:12.205Z,99616.44
2023-03-05T12:55:44.742Z,99624.53
2023-03-05T12:58:49.815Z,99618.78
2023-03-05T13:01:45.519Z,99623.25
2023-03-05T13:04:24.612Z,99619.78
2023-03-05T13:07:12.005Z,99615.72
2023-03-05T13:09:38.774Z,99616.50
2023-03-05T13:12:12.994Z,99622.13
2023-03-05T13:14:42.396Z,99630.19
2023-03-05T13:17:24.211Z,99622.78
2023-03-05T13:19:51.004Z,99622.94
2023-03-05T13:22:20.520Z,99625.88
2023-03-05T13:24:47.222Z,99621.59
2023-03-05T13:27:30.373Z,99609.16
2023-03-05T13:29:56.993Z,99612.78
2023-03-05T13:32:30.433Z,99616.28
2023-03-05T13:34:59.476Z,99606.84
2023-03-05T13:37:28.218Z,99608.44
2023-03-05T13:40:20.256Z,99618.88
2023-03-05T13:42:47.007Z,99614.72
2023-03-05T13:45:27.249Z,99604.16
2023-03-05T13:47:56.559Z,99598.72
2023-03-05T13:50:27.259Z,99599.59
2023-03-05T13:52:54.459Z,99603.78
2023-03-05T13:55:21.569Z,99611.13
2023-03-05T13:57:51.295Z,99607.78
2023-03-05T14:00:24.510Z,99604.44
2023-03-05T14:02:51.865Z,99606.31
2023-03-05T14:05:18.960Z,99603.31
2023-03-05T14:07:51.304Z,99609.69
2023-03-05T14:10:33.264Z,99611.34
2023-03-05T14:13:03.959Z,99607.88
2023-03-05T14:15:33.478Z,99609.16
2023-03-05T14:18:19.505Z,99614.38
2023-03-05T14:21:01.297Z,99611.91
2023-03-05T14:23:46.050Z,99612.94
2023-03-05T14:26:18.836Z,99605.13
2023-03-05T14:29:11.488Z,99596.53
2023-03-05T14:31:47.120Z,99599.13
2023-03-05T14:34:28.498Z,99605.03
2023-03-05T14:36:58.492Z,99592.06
2023-03-05T14:39:45.240Z,99581.09
2023-03-05T14:42:30.317Z,99578.66
2023-03-05T14:45:00.061Z,99565.03
2023-03-05T14:47:27.976Z,99578.25
2023-03-05T14:49:54.678Z,99564.06
2023-03-05T14:52:24.439Z,99551.09
2023-03-05T14:54:51.847Z,99545.53
2023-03-05T14:57:22.640Z,99548.34
2023-03-05T14:59:49.390Z,99558.31
2023-03-05T15:02:18.417Z,99560.78
2023-03-05T15:04:45.185Z,99560.03
2023-03-05T15:07:22.782Z,99561.16
2023-03-05T15:09:49.580Z,99568.91
2023-03-05T15:12:16.771Z,99568.78
2023-03-05T15:14:43.914Z,99572.34
2023-03-05T15:17:16.869Z,99578.50
2023-03-05T15:19:43.717Z,99572.25
2023-03-05T15:22:12.206Z,99575.72
2023-03-05T15:24:39.047Z,99577.31
2023-03-05T15:27:05.936Z,99577.75
2023-03-05T15:29:33.271Z,99584.88
2023-03-05T15:32:00.101Z,99584.06
2023-03-05T15:34:27.575Z,99581.41
2023-03-05T15:36:54.321Z,99575.19
2023-03-05T15:39:21.024Z,99575.00
2023-03-05T15:41:47.622Z,99569.88
2023-03-05T15:44:14.268Z,99573.34
2023-03-05T15:46:41.017Z,99573.28
2023-03-05T15:49:07.698Z,99584.81
2023-03-05T15:51:34.688Z,99585.78
2023-03-05T15:54:01.365Z,99591.66
2023-03-05T15:56:28.036Z,99582.25
2023-03-05T15:58:54.654Z,99580.47
2023-03-05T16:01:21.357Z,99586.56
2023-03-05T16:03:48.027Z,99586.38
2023-03-05T16:08:51.572Z,99587.56
2023-03-05T16:11:18.966Z,99582.34
2023-03-05T16:13:45.693Z,99595.38
2023-03-05T16:16:13.119Z,99596.38
2023-03-05T16:18:44.352Z,99607.63
2023-03-05T16:21:11.993Z,99601.63
2023-03-05T16:23:38.696Z,99605.94
2023-03-05T16:26:05.546Z,99602.41
2023-03-05T16:28:32.209Z,99609.38
2023-03-05T16:30:58.901Z,99613.75
2023-03-05T16:33:25.671Z,99609.38
2023-03-05T16:36:10.686Z,99600.84
2023-03-05T16:38:39.472Z,99606.78
2023-03-05T16:41:08.518Z,99607.81
2023-03-05T16:43:35.478Z,99607.91
2023-03-05T16:46:02.094Z,99599.16
2023-03-05T16:48:29.762Z,99598.41
2023-03-05T16:50:56.393Z,99594.94
2023-03-05T16:53:23.487Z,99600.22
2023-03-05T16:55:53.077Z,99600.94
2023-03-05T16:58:21.876Z,99601.06
2023-03-05T17:00:48.906Z,99597.50
2023-03-05T17:03:15.754Z,99598.44
2023-03-05T17:05:42.408Z,99601.03
2023-03-05T17:08:11.027Z,99604.56
2023-03-05T17:10:37.749Z,99599.34
2023-03-05T17:13:04.473Z,99601.91
2023-03-05T17:15:31.189Z,99606.25
2023-03-05T17:17:57.805Z,99614.97
2023-03-05T17:20:24.433Z,99614.06
2023-03-05T17:22:51.048Z,99616.69
2023-03-05T17:25:17.891Z,99605.41
2023-03-05T17:27:44.566Z,99610.59
2023-03-05T17:30:11.804Z,99617.56
2023-03-05T17:32:38.530Z,99614.09
2023-03-05T17:35:05.829Z,99625.34
2023-03-05T17:37:32.591Z,99623.66
2023-03-05T17:40:01.817Z,99627.09
2023-03-05T17:42:28.596Z,99619.34
2023-03-05T17:44:55.201Z,99632.25
2023-03-05T17:47:21.798Z,99621.94
2023-03-05T17:49:48.467Z,99620.19
2023-03-05T17:52:15.074Z,99628.84
2023-03-05T17:54:41.711Z,99639.22
2023-03-05T17:57:13.287Z,99628.84
2023-03-05T17:59:39.910Z,99630.53
2023-03-05T18:02:07.252Z,99621.91
2023-03-05T18:04:33.943Z,99618.38
2023-03-05T18:07:00.633Z,99621.88
2023-03-05T18:09:27.365Z,99621.91
2023-03-05T18:11:53.977Z,99618.41
2023-03-05T18:14:20.623Z,99616.72
2023-03-05T18:16:48.838Z,99614.13
2023-03-05T18:19:15.871Z,99616.75
2023-03-05T18:21:42.698Z,99609.78
2023-03-05T18:24:09.653Z,99613.19
2023-03-05T18:26:43.902Z,99620.19
2023-03-05T18:29:10.603Z,99621.06
2023-03-05T18:31:37.328Z,99611.53
2023-03-05T18:34:04.077Z,99614.09
2023-03-05T18:36:30.782Z,99616.69
2023-03-05T18:38:57.402Z,99616.72
2023-03-05T18:41:27.620Z,99612.41
2023-03-05T18:43:54.685Z,99614.16
2023-03-05T18:46:21.404Z,99606.25
2023-03-05T18:48:49.796Z,99613.25
2023-03-05T18:51:19.186Z,99610.59
2023-03-05T18:53:46.435Z,99603.72
2023-03-05T18:56:13.304Z,99605.41
2023-03-05T18:58:40.542Z,99595.88
2023-03-05T19:01:07.213Z,99602.88
2023-03-05T19:03:33.846Z,99602.88
2023-03-05T19:06:05.304Z,99601.13
2023-03-05T19:08:32.086Z,99606.31
2023-03-05T19:10:58.685Z,99612.28
2023-03-05T19:13:27.823Z,99607.06
2023-03-05T19:15:54.688Z,99610.63
2023-03-05T19:18:26.795Z,99603.72
2023-03-05T19:20:55.022Z,99612.38
2023-03-05T19:23:22.026Z,99603.59
2023-03-05T19:25:48.790Z,99603.66
2023-03-05T19:28:15.526Z,99612.03
2023-03-05T19:30:42.372Z,99613.75
2023-03-05T19:33:09.060Z,99607.81
2023-03-05T19:35:35.684Z,99611.44
2023-03-05T19:38:02.304Z,99611.44
2023-03-05T19:40:28.956Z,99609.66
2023-03-05T19:42:55.631Z,99612.34
2023-03-05T19:45:22.283Z,99613.22
2023-03-05T19:47:49.102Z,99612.94
2023-03-05T19:50:16.134Z,99610.63
2023-03-05T19:52:42.773Z,99614.06
2023-03-05T19:55:09.953Z,99607.16
2023-03-05T19:57:36.880Z,99612.09
2023-03-05T20:00:04.567Z,99612.78
2023-03-05T20:02:31.628Z,99607.72
2023-03-05T20:04:58.253Z,99601.53
2023-03-05T20:07:25.154Z,99604.34
2023-03-05T20:09:51.836Z,99601.06
2023-03-05T20:12:21.812Z,99605.47
2023-03-05T20:14:48.509Z,99601.88
2023-03-05T20:17:15.933Z,99597.34
2023-03-05T20:19:42.633Z,99599.91
2023-03-05T20:22:09.302Z,99597.19
2023-03-05T20:24:36.096Z,99597.16
2023-03-05T20:27:02.754Z,99598.47
2023-03-05T20:29:29.502Z,99588.13
2023-03-05T20:31:56.172Z,99599.28
2023-03-05T20:34:22.935Z,99597.50
2023-03-05T20:36:49.860Z,99600.78
2023-03-05T20:39:16.584Z,99597.22
2023-03-05T20:41:43.236Z,99593.22
2023-03-05T20:44:09.979Z,99595.13
2023-03-05T20:46:43.143Z,99596.78
2023-03-05T20:49:09.813Z,99595.03
2023-03-05T20:51:40.113Z,99595.81
2023-03-05T20:54:10.612Z,99596.00
2023-03-05T20:56:37.834Z,99588.25
2023-03-05T20:59:06.416Z,99592.50
2023-03-05T21:01:34.778Z,99590.78
2023-03-05T21:04:01.909Z,99588.91
2023-03-05T21:06:32.449Z,99588.88
2023-03-05T21:08:59.972Z,99584.66
2023-03-05T21:11:27.617Z,99587.38
2023-03-05T21:13:54.406Z,99588.97
2023-03-05T21:16:24.263Z,99588.16
2023-03-05T21:18:51.729Z,99589.97
2023-03-05T21:21:19.338Z,99586.50
2023-03-05T21:23:46.203Z,99583.91
2023-03-05T21:26:13.580Z,99577.81
2023-03-05T21:28:40.779Z,99576.84
2023-03-05T21:31:16.997Z,99582.72
2023-03-05T21:33:43.969Z,99577.75
2023-03-05T21:36:10.635Z,99585.53
2023-03-05T21:38:37.293Z,99583.00
2023-03-05T21:41:05.788Z,99585.63
2023-03-05T21:43:32.836Z,99582.19
2023-03-05T21:46:01.712Z,99589.09
2023-03-05T21:48:29.110Z,99582.94
2023-03-05T21:50:56.280Z,99586.44
2023-03-05T21:53:23.663Z,99592.41
2023-03-05T21:56:05.361Z,99588.13
2023-03-05T21:58:33.450Z,99582.94
2023-03-05T22:01:00.572Z,99588.06
2023-03-05T22:03:28.518Z,99581.88
2023-03-05T22:05:56.557Z,99574.81
2023-03-05T22:08:23.623Z,99581.63
2023-03-05T22:10:50.734Z,99574.97
2023-03-05T22:13:17.574Z,99570.81
2023-03-05T22:15:51.994Z,99564.88
2023-03-05T22:18:21.039Z,99567.34
2023-03-05T22:20:48.401Z,99571.66
2023-03-05T22:23:15.926Z,99566.31
2023-03-05T22:25:43.858Z,99566.13
2023-03-05T22:28:12.573Z,99562.91
2023-03-05T22:30:45.651Z,99562.06
2023-03-05T22:33:13.072Z,99556.84
2023-03-05T22:35:40.674Z,99560.28
2023-03-05T22:38:10.884Z,99559.50
2023-03-05T22:40:42.792Z,99554.47
2023-03-05T22:43:09.582Z,99554.31
2023-03-05T22:45:36.527Z,99552.63
2023-03-05T22:48:03.473Z,99553.53
2023-03-05T22:50:30.184Z,99550.81
2023-03-05T22:52:56.920Z,99547.50
2023-03-05T22:55:23.793Z,99547.16
2023-03-05T22:57:50.583Z,99542.84
2023-03-05T23:00:20.683Z,99550.56
2023-03-05T23:02:47.749Z,99540.16
2023-03-05T23:05:14.442Z,99547.91
2023-03-05T23:07:43.078Z,99543.72
2023-03-05T23:10:21.759Z,99538.41
2023-03-05T23:12:51.412Z,99539.63
2023-03-05T23:15:24.551Z,99538.06
2023-03-05T23:17:51.462Z,99546.53
2023-03-05T23:20:21.024Z,99537.13
2023-03-05T23:22:52.091Z,99539.81
2023-03-05T23:25:19.073Z,99535.47
2023-03-05T23:27:46.321Z,99533.69
2023-03-05T23:30:18.390Z,99539.72
2023-03-05T23:33:03.264Z,99540.47
2023-03-05T23:35:36.727Z,99533.25
2023-03-05T23:38:07.080Z,99536.91
2023-03-05T23:40:46.157Z,99536.22
2023-03-05T23:43:14.914Z,99533.69
2023-03-05T23:45:43.278Z,99535.50
2023-03-05T23:48:10.534Z,99532.03
2023-03-05T23:50:40.842Z,99532.06
2023-03-05T23:53:08.411Z,99536.34
2023-03-05T23:55:44.573Z,99533.75
2023-03-05T23:58:11.982Z,99530.31
